sensor_id;sensor_type;location;lat;lon;timestamp;pressure;altitude;pressure_sealevel;temperature;humidity
11329;BME280;5719;42.714;23.732;2023-04-20T00:00:47;94037.16;;;10.59;100.00
11329;BME280;5719;42.714;23.732;2023-04-20T00:03:14;94026.69;;;10.60;100.00
11329;BME280;5719;42.714;23.732;2023-04-20T00:05:42;94032.25;;;10.45;100.00
11329;BME280;5719;42.714;23.732;2023-04-20T00:08:09;94029.13;;;10.19;100.00
11329;BME280;5719;42.714;23.732;2023-04-20T00:10:36;94028.63;;;10.25;100.00
11329;BME280;5719;42.714;23.732;2023-04-20T00:13:05;94025.34;;;10.34;100.00
11329;BME280;5719;42.714;23.732;2023-04-20T00:15:32;94023.34;;;10.38;100.00
11329;BME280;5719;42.714;23.732;2023-04-20T00:17:59;94016.63;;;10.35;100.00
11329;BME280;5719;42.714;23.732;2023-04-20T00:20:26;94029.34;;;10.38;100.00
11329;BME280;5719;42.714;23.732;2023-04-20T00:22:53;94021.00;;;10.35;100.00
11329;BME280;5719;42.714;23.732;2023-04-20T00:25:20;94023.22;;;10.39;100.00
11329;BME280;5719;42.714;23.732;2023-04-20T00:27:47;94019.59;;;10.42;100.00
11329;BME280;5719;42.714;23.732;2023-04-20T00:30:15;94017.13;;;10.40;100.00
11329;BME280;5719;42.714;23.732;2023-04-20T00:32:42;94010.03;;;10.42;100.00
11329;BME280;5719;42.714;23.732;2023-04-20T00:35:09;94003.25;;;10.41;100.00
11329;BME280;5719;42.714;23.732;2023-04-20T00:37:36;94010.44;;;10.38;100.00
11329;BME280;5719;42.714;23.732;2023-04-20T00:40:03;94001.53;;;10.30;100.00
11329;BME280;5719;42.714;23.732;2023-04-20T00:42:30;94009.38;;;10.29;100.00
11329;BME280;5719;42.714;23.732;2023-04-20T00:44:57;94003.72;;;10.13;100.00
11329;BME280;5719;42.714;23.732;2023-04-20T00:47:25;94010.53;;;10.03;100.00
11329;BME280;5719;42.714;23.732;2023-04-20T00:49:53;94012.69;;;9.87;100.00
11329;BME280;5719;42.714;23.732;2023-04-20T00:52:21;94002.09;;;9.90;100.00
11329;BME280;5719;42.714;23.732;2023-04-20T00:54:47;94006.44;;;9.89;100.00
11329;BME280;5719;42.714;23.732;2023-04-20T00:57:18;94001.88;;;9.93;100.00
11329;BME280;5719;42.714;23.732;2023-04-20T00:59:48;94002.56;;;9.50;100.00
11329;BME280;5719;42.714;23.732;2023-04-20T01:02:16;94002.44;;;9.63;100.00
11329;BME280;5719;42.714;23.732;2023-04-20T01:04:46;94000.94;;;9.71;100.00
11329;BME280;5719;42.714;23.732;2023-04-20T01:07:13;94000.59;;;9.76;100.00
11329;BME280;5719;42.714;23.732;2023-04-20T01:09:39;93999.38;;;9.80;100.00
11329;BME280;5719;42.714;23.732;2023-04-20T01:12:08;94004.69;;;9.78;100.00
11329;BME280;5719;42.714;23.732;2023-04-20T01:14:35;94001.28;;;9.78;100.00
11329;BME280;5719;42.714;23.732;2023-04-20T01:17:02;94007.03;;;9.81;100.00
11329;BME280;5719;42.714;23.732;2023-04-20T01:19:31;93992.25;;;9.83;100.00
11329;BME280;5719;42.714;23.732;2023-04-20T01:21:59;93996.69;;;9.81;100.00
11329;BME280;5719;42.714;23.732;2023-04-20T01:24:27;93988.63;;;9.75;100.00
11329;BME280;5719;42.714;23.732;2023-04-20T01:26:54;93987.78;;;9.74;100.00
11329;BME280;5719;42.714;23.732;2023-04-20T01:29:22;93985.91;;;9.76;100.00
11329;BME280;5719;42.714;23.732;2023-04-20T01:31:48;93992.47;;;9.80;100.00
11329;BME280;5719;42.714;23.732;2023-04-20T01:34:15;93992.47;;;9.80;100.00
11329;BME280;5719;42.714;23.732;2023-04-20T01:36:42;93982.38;;;9.77;100.00
11329;BME280;5719;42.714;23.732;2023-04-20T01:39:10;93977.94;;;9.68;100.00
11329;BME280;5719;42.714;23.732;2023-04-20T01:41:39;93982.63;;;9.52;100.00
11329;BME280;5719;42.714;23.732;2023-04-20T01:44:06;93978.97;;;9.44;100.00
11329;BME280;5719;42.714;23.732;2023-04-20T01:46:36;93972.78;;;9.46;100.00
11329;BME280;5719;42.714;23.732;2023-04-20T01:49:02;93984.34;;;9.41;100.00
11329;BME280;5719;42.714;23.732;2023-04-20T01:51:29;93985.75;;;9.33;100.00
11329;BME280;5719;42.714;23.732;2023-04-20T01:53:57;93980.88;;;8.96;100.00
11329;BME280;5719;42.714;23.732;2023-04-20T01:56:24;93974.94;;;9.06;100.00
11329;BME280;5719;42.714;23.732;2023-04-20T01:58:52;93982.56;;;9.19;100.00
11329;BME280;5719;42.714;23.732;2023-04-20T02:01:19;93977.56;;;9.28;100.00
11329;BME280;5719;42.714;23.732;2023-04-20T02:03:47;93973.53;;;9.13;100.00
11329;BME280;5719;42.714;23.732;2023-04-20T02:06:14;93977.13;;;9.11;100.00
11329;BME280;5719;42.714;23.732;2023-04-20T02:08:41;93971.31;;;9.20;100.00
11329;BME280;5719;42.714;23.732;2023-04-20T02:11:08;93977.91;;;9.24;100.00
11329;BME280;5719;42.714;23.732;2023-04-20T02:13:35;93980.44;;;9.13;100.00
11329;BME280;5719;42.714;23.732;2023-04-20T02:16:04;93981.41;;;8.77;100.00
11329;BME280;5719;42.714;23.732;2023-04-20T02:18:31;93982.47;;;8.85;100.00
11329;BME280;5719;42.714;23.732;2023-04-20T02:20:58;93980.41;;;9.02;100.00
11329;BME280;5719;42.714;23.732;2023-04-20T02:23:26;93985.50;;;9.14;100.00
11329;BME280;5719;42.714;23.732;2023-04-20T02:25:53;93980.25;;;8.81;100.00
11329;BME280;5719;42.714;23.732;2023-04-20T02:28:19;93976.50;;;8.96;100.00
11329;BME280;5719;42.714;23.732;2023-04-20T02:30:46;93980.78;;;9.08;100.00
11329;BME280;5719;42.714;23.732;2023-04-20T02:33:14;93981.88;;;9.17;100.00
11329;BME280;5719;42.714;23.732;2023-04-20T02:35:41;93972.13;;;9.20;100.00
11329;BME280;5719;42.714;23.732;2023-04-20T02:38:08;93980.22;;;9.27;100.00
11329;BME280;5719;42.714;23.732;2023-04-20T02:40:35;93984.22;;;9.31;100.00
11329;BME280;5719;42.714;23.732;2023-04-20T02:43:02;93976.25;;;9.34;100.00
11329;BME280;5719;42.714;23.732;2023-04-20T02:45:29;93976.97;;;9.36;100.00
11329;BME280;5719;42.714;23.732;2023-04-20T02:47:56;93980.25;;;9.38;100.00
11329;BME280;5719;42.714;23.732;2023-04-20T02:50:24;93972.63;;;9.36;100.00
11329;BME280;5719;42.714;23.732;2023-04-20T02:52:51;93982.84;;;9.38;100.00
11329;BME280;5719;42.714;23.732;2023-04-20T02:55:18;93971.59;;;9.39;100.00
11329;BME280;5719;42.714;23.732;2023-04-20T02:57:45;93977.16;;;9.22;100.00
11329;BME280;5719;42.714;23.732;2023-04-20T03:00:12;93973.44;;;9.26;100.00
11329;BME280;5719;42.714;23.732;2023-04-20T03:02:39;93981.06;;;9.27;100.00
11329;BME280;5719;42.714;23.732;2023-04-20T03:05:07;93977.66;;;9.27;100.00
11329;BME280;5719;42.714;23.732;2023-04-20T03:07:35;93986.09;;;9.29;100.00
11329;BME280;5719;42.714;23.732;2023-04-20T03:10:03;93986.09;;;9.29;100.00
11329;BME280;5719;42.714;23.732;2023-04-20T03:12:30;93982.00;;;9.26;100.00
11329;BME280;5719;42.714;23.732;2023-04-20T03:14:57;93982.31;;;9.22;100.00
11329;BME280;5719;42.714;23.732;2023-04-20T03:17:24;93975.19;;;9.14;100.00
11329;BME280;5719;42.714;23.732;2023-04-20T03:19:51;93975.69;;;8.84;100.00
11329;BME280;5719;42.714;23.732;2023-04-20T03:22:18;93986.81;;;8.61;100.00
11329;BME280;5719;42.714;23.732;2023-04-20T03:24:46;93984.09;;;8.52;100.00
11329;BME280;5719;42.714;23.732;2023-04-20T03:27:13;93978.59;;;8.20;100.00
11329;BME280;5719;42.714;23.732;2023-04-20T03:29:40;93988.50;;;8.26;100.00
11329;BME280;5719;42.714;23.732;2023-04-20T03:32:07;93991.47;;;7.83;100.00
11329;BME280;5719;42.714;23.732;2023-04-20T03:34:34;93989.28;;;8.03;100.00
11329;BME280;5719;42.714;23.732;2023-04-20T03:37:01;93990.88;;;8.16;100.00
11329;BME280;5719;42.714;23.732;2023-04-20T03:39:28;93993.88;;;8.23;100.00
11329;BME280;5719;42.714;23.732;2023-04-20T03:41:56;93988.38;;;8.27;100.00
11329;BME280;5719;42.714;23.732;2023-04-20T03:44:24;93990.56;;;8.33;100.00
11329;BME280;5719;42.714;23.732;2023-04-20T03:46:51;93986.13;;;8.35;100.00
11329;BME280;5719;42.714;23.732;2023-04-20T03:49:22;93986.72;;;8.39;100.00
11329;BME280;5719;42.714;23.732;2023-04-20T03:51:49;93989.78;;;8.44;100.00
11329;BME280;5719;42.714;23.732;2023-04-20T03:54:16;94005.72;;;8.49;100.00
11329;BME280;5719;42.714;23.732;2023-04-20T03:56:43;93997.69;;;8.54;100.00
11329;BME280;5719;42.714;23.732;2023-04-20T03:59:11;94001.78;;;8.56;100.00
11329;BME280;5719;42.714;23.732;2023-04-20T04:01:38;93989.34;;;8.50;100.00
11329;BME280;5719;42.714;23.732;2023-04-20T04:04:06;94000.94;;;8.45;100.00
11329;BME280;5719;42.714;23.732;2023-04-20T04:06:33;94005.66;;;8.38;100.00
11329;BME280;5719;42.714;23.732;2023-04-20T04:09:00;94004.66;;;8.28;100.00
11329;BME280;5719;42.714;23.732;2023-04-20T04:11:27;94008.91;;;8.29;100.00
11329;BME280;5719;42.714;23.732;2023-04-20T04:13:56;94009.72;;;8.29;100.00
11329;BME280;5719;42.714;23.732;2023-04-20T04:16:24;94002.28;;;8.38;100.00
11329;BME280;5719;42.714;23.732;2023-04-20T04:18:51;94009.97;;;8.50;100.00
11329;BME280;5719;42.714;23.732;2023-04-20T04:21:17;94003.56;;;8.56;100.00
11329;BME280;5719;42.714;23.732;2023-04-20T04:23:45;94006.50;;;8.62;100.00
11329;BME280;5719;42.714;23.732;2023-04-20T04:26:12;94010.63;;;8.65;100.00
11329;BME280;5719;42.714;23.732;2023-04-20T04:28:39;94002.19;;;8.63;100.00
11329;BME280;5719;42.714;23.732;2023-04-20T04:31:06;94007.53;;;8.60;100.00
11329;BME280;5719;42.714;23.732;2023-04-20T04:33:35;94016.44;;;8.56;100.00
11329;BME280;5719;42.714;23.732;2023-04-20T04:36:02;94006.00;;;8.57;100.00
11329;BME280;5719;42.714;23.732;2023-04-20T04:38:29;94014.94;;;8.64;100.00
11329;BME280;5719;42.714;23.732;2023-04-20T04:40:57;94016.97;;;8.72;100.00
11329;BME280;5719;42.714;23.732;2023-04-20T04:43:26;94022.50;;;8.78;100.00
11329;BME280;5719;42.714;23.732;2023-04-20T04:45:53;94022.94;;;8.72;100.00
11329;BME280;5719;42.714;23.732;2023-04-20T04:48:23;94017.09;;;8.70;100.00
11329;BME280;5719;42.714;23.732;2023-04-20T04:50:51;94021.44;;;8.70;100.00
11329;BME280;5719;42.714;23.732;2023-04-20T04:53:18;94020.22;;;8.63;100.00
11329;BME280;5719;42.714;23.732;2023-04-20T04:55:45;94026.91;;;8.65;100.00
11329;BME280;5719;42.714;23.732;2023-04-20T04:58:12;94028.09;;;8.72;100.00
11329;BME280;5719;42.714;23.732;2023-04-20T05:00:38;94026.69;;;8.45;100.00
11329;BME280;5719;42.714;23.732;2023-04-20T05:03:05;94030.63;;;8.61;100.00
11329;BME280;5719;42.714;23.732;2023-04-20T05:05:32;94034.69;;;8.76;100.00
11329;BME280;5719;42.714;23.732;2023-04-20T05:08:01;94033.91;;;8.87;100.00
11329;BME280;5719;42.714;23.732;2023-04-20T05:10:27;94027.88;;;8.99;100.00
11329;BME280;5719;42.714;23.732;2023-04-20T05:12:55;94025.16;;;9.01;100.00
11329;BME280;5719;42.714;23.732;2023-04-20T05:15:24;94030.28;;;8.90;100.00
11329;BME280;5719;42.714;23.732;2023-04-20T05:17:51;94026.53;;;8.59;100.00
11329;BME280;5719;42.714;23.732;2023-04-20T05:20:18;94030.59;;;8.74;100.00
11329;BME280;5719;42.714;23.732;2023-04-20T05:22:45;94036.16;;;8.92;100.00
11329;BME280;5719;42.714;23.732;2023-04-20T05:25:13;94033.84;;;9.00;100.00
11329;BME280;5719;42.714;23.732;2023-04-20T05:27:40;94044.31;;;9.09;100.00
11329;BME280;5719;42.714;23.732;2023-04-20T05:30:08;94038.69;;;9.15;100.00
11329;BME280;5719;42.714;23.732;2023-04-20T05:32:35;94034.31;;;9.28;100.00
11329;BME280;5719;42.714;23.732;2023-04-20T05:35:01;94038.44;;;9.42;100.00
11329;BME280;5719;42.714;23.732;2023-04-20T05:37:29;94039.97;;;9.56;100.00
11329;BME280;5719;42.714;23.732;2023-04-20T05:39:56;94044.47;;;9.65;100.00
11329;BME280;5719;42.714;23.732;2023-04-20T05:42:24;94043.97;;;9.71;100.00
11329;BME280;5719;42.714;23.732;2023-04-20T05:44:51;94047.25;;;9.73;100.00
11329;BME280;5719;42.714;23.732;2023-04-20T05:47:18;94045.16;;;9.78;100.00
11329;BME280;5719;42.714;23.732;2023-04-20T05:49:44;94051.97;;;9.79;100.00
11329;BME280;5719;42.714;23.732;2023-04-20T05:52:11;94045.84;;;9.80;100.00
11329;BME280;5719;42.714;23.732;2023-04-20T05:54:38;94044.09;;;9.80;100.00
11329;BME280;5719;42.714;23.732;2023-04-20T05:57:05;94045.88;;;9.91;100.00
11329;BME280;5719;42.714;23.732;2023-04-20T05:59:34;94041.09;;;9.98;100.00
11329;BME280;5719;42.714;23.732;2023-04-20T06:02:02;94042.25;;;10.05;100.00
11329;BME280;5719;42.714;23.732;2023-04-20T06:04:29;94044.88;;;10.16;100.00
11329;BME280;5719;42.714;23.732;2023-04-20T06:06:56;94037.22;;;10.14;100.00
11329;BME280;5719;42.714;23.732;2023-04-20T06:09:24;94039.66;;;10.05;100.00
11329;BME280;5719;42.714;23.732;2023-04-20T06:11:51;94042.72;;;10.21;100.00
11329;BME280;5719;42.714;23.732;2023-04-20T06:14:18;94043.31;;;10.36;100.00
11329;BME280;5719;42.714;23.732;2023-04-20T06:16:46;94045.19;;;10.45;100.00
11329;BME280;5719;42.714;23.732;2023-04-20T06:19:13;94049.16;;;10.60;100.00
11329;BME280;5719;42.714;23.732;2023-04-20T06:21:40;94045.72;;;10.70;100.00
11329;BME280;5719;42.714;23.732;2023-04-20T06:24:07;94050.63;;;10.73;100.00
11329;BME280;5719;42.714;23.732;2023-04-20T06:26:34;94040.47;;;10.93;100.00
11329;BME280;5719;42.714;23.732;2023-04-20T06:29:01;94044.84;;;11.13;100.00
11329;BME280;5719;42.714;23.732;2023-04-20T06:31:28;94032.75;;;11.13;100.00
11329;BME280;5719;42.714;23.732;2023-04-20T06:33:56;94033.63;;;10.71;100.00
11329;BME280;5719;42.714;23.732;2023-04-20T06:36:23;94040.69;;;10.58;100.00
11329;BME280;5719;42.714;23.732;2023-04-20T06:38:52;94041.53;;;10.36;100.00
11329;BME280;5719;42.714;23.732;2023-04-20T06:41:19;94044.44;;;10.65;100.00
11329;BME280;5719;42.714;23.732;2023-04-20T06:43:46;94038.16;;;10.24;100.00
11329;BME280;5719;42.714;23.732;2023-04-20T06:46:13;94050.97;;;10.26;100.00
11329;BME280;5719;42.714;23.732;2023-04-20T06:48:40;94038.72;;;10.06;100.00
11329;BME280;5719;42.714;23.732;2023-04-20T06:51:08;94041.09;;;10.09;100.00
11329;BME280;5719;42.714;23.732;2023-04-20T06:53:35;94044.13;;;10.03;100.00
11329;BME280;5719;42.714;23.732;2023-04-20T06:56:02;94047.19;;;10.41;100.00
11329;BME280;5719;42.714;23.732;2023-04-20T06:58:29;94046.81;;;10.46;100.00
11329;BME280;5719;42.714;23.732;2023-04-20T07:00:56;94044.69;;;10.51;100.00
11329;BME280;5719;42.714;23.732;2023-04-20T07:03:23;94053.78;;;10.23;100.00
11329;BME280;5719;42.714;23.732;2023-04-20T07:05:50;94052.00;;;9.90;100.00
11329;BME280;5719;42.714;23.732;2023-04-20T07:08:19;94043.16;;;9.70;100.00
11329;BME280;5719;42.714;23.732;2023-04-20T07:10:46;94050.00;;;9.94;100.00
11329;BME280;5719;42.714;23.732;2023-04-20T07:13:13;94049.50;;;10.00;100.00
11329;BME280;5719;42.714;23.732;2023-04-20T07:15:40;94054.78;;;9.65;100.00
11329;BME280;5719;42.714;23.732;2023-04-20T07:18:08;94052.56;;;9.71;100.00
11329;BME280;5719;42.714;23.732;2023-04-20T07:20:34;94057.00;;;9.80;100.00
11329;BME280;5719;42.714;23.732;2023-04-20T07:23:01;94050.22;;;9.91;100.00
11329;BME280;5719;42.714;23.732;2023-04-20T07:25:30;94062.19;;;10.03;100.00
11329;BME280;5719;42.714;23.732;2023-04-20T07:27:57;94060.13;;;10.19;100.00
11329;BME280;5719;42.714;23.732;2023-04-20T07:30:24;94067.63;;;10.33;100.00
11329;BME280;5719;42.714;23.732;2023-04-20T07:32:51;94060.34;;;10.27;100.00
11329;BME280;5719;42.714;23.732;2023-04-20T07:35:18;94063.03;;;10.37;100.00
11329;BME280;5719;42.714;23.732;2023-04-20T07:37:45;94060.06;;;10.63;100.00
11329;BME280;5719;42.714;23.732;2023-04-20T07:40:12;94057.19;;;10.89;100.00
11329;BME280;5719;42.714;23.732;2023-04-20T07:42:42;94053.13;;;11.07;100.00
11329;BME280;5719;42.714;23.732;2023-04-20T07:45:11;94048.31;;;11.02;100.00
11329;BME280;5719;42.714;23.732;2023-04-20T07:47:38;94055.25;;;11.02;100.00
11329;BME280;5719;42.714;23.732;2023-04-20T07:50:08;94051.78;;;11.12;100.00
11329;BME280;5719;42.714;23.732;2023-04-20T07:52:35;94049.94;;;11.35;100.00
11329;BME280;5719;42.714;23.732;2023-04-20T07:55:02;94053.91;;;11.39;100.00
11329;BME280;5719;42.714;23.732;2023-04-20T07:57:29;94050.41;;;11.08;98.88
11329;BME280;5719;42.714;23.732;2023-04-20T07:59:58;94063.28;;;10.88;100.00
11329;BME280;5719;42.714;23.732;2023-04-20T08:02:24;94051.78;;;10.80;100.00
11329;BME280;5719;42.714;23.732;2023-04-20T08:04:51;94049.00;;;11.04;100.00
11329;BME280;5719;42.714;23.732;2023-04-20T08:07:18;94050.00;;;11.24;100.00
11329;BME280;5719;42.714;23.732;2023-04-20T08:09:45;94054.09;;;11.26;100.00
11329;BME280;5719;42.714;23.732;2023-04-20T08:12:12;94060.28;;;11.14;98.18
11329;BME280;5719;42.714;23.732;2023-04-20T08:14:39;94049.94;;;11.35;97.93
11329;BME280;5719;42.714;23.732;2023-04-20T08:17:07;94049.81;;;11.57;99.26
11329;BME280;5719;42.714;23.732;2023-04-20T08:19:34;94050.59;;;11.69;97.28
11329;BME280;5719;42.714;23.732;2023-04-20T08:22:01;94050.75;;;11.56;99.42
11329;BME280;5719;42.714;23.732;2023-04-20T08:24:28;94044.81;;;11.24;100.00
11329;BME280;5719;42.714;23.732;2023-04-20T08:26:55;94039.44;;;11.16;100.00
11329;BME280;5719;42.714;23.732;2023-04-20T08:29:23;94050.03;;;11.13;100.00
11329;BME280;5719;42.714;23.732;2023-04-20T08:31:50;94053.50;;;11.23;100.00
11329;BME280;5719;42.714;23.732;2023-04-20T08:34:19;94049.94;;;11.14;100.00
11329;BME280;5719;42.714;23.732;2023-04-20T08:36:46;94057.06;;;11.43;100.00
11329;BME280;5719;42.714;23.732;2023-04-20T08:39:17;94048.22;;;11.24;100.00
11329;BME280;5719;42.714;23.732;2023-04-20T08:41:44;94050.25;;;11.21;98.91
11329;BME280;5719;42.714;23.732;2023-04-20T08:44:12;94046.47;;;11.66;98.54
11329;BME280;5719;42.714;23.732;2023-04-20T08:46:40;94051.03;;;11.95;95.11
11329;BME280;5719;42.714;23.732;2023-04-20T08:49:14;94053.63;;;11.95;93.12
11329;BME280;5719;42.714;23.732;2023-04-20T08:51:44;94045.63;;;12.38;93.61
11329;BME280;5719;42.714;23.732;2023-04-20T08:54:11;94053.44;;;12.57;91.44
11329;BME280;5719;42.714;23.732;2023-04-20T08:56:40;94045.34;;;12.41;87.97
11329;BME280;5719;42.714;23.732;2023-04-20T08:59:07;94043.69;;;12.00;92.25
11329;BME280;5719;42.714;23.732;2023-04-20T09:01:35;94057.25;;;12.13;91.51
11329;BME280;5719;42.714;23.732;2023-04-20T09:04:14;94054.91;;;12.10;93.79
11329;BME280;5719;42.714;23.732;2023-04-20T09:06:44;94046.56;;;12.46;90.81
11329;BME280;5719;42.714;23.732;2023-04-20T09:09:11;94038.63;;;12.78;91.10
11329;BME280;5719;42.714;23.732;2023-04-20T09:11:38;94050.53;;;13.00;92.56
11329;BME280;5719;42.714;23.732;2023-04-20T09:14:07;94050.31;;;13.22;89.06
11329;BME280;5719;42.714;23.732;2023-04-20T09:16:37;94051.47;;;12.89;88.91
11329;BME280;5719;42.714;23.732;2023-04-20T09:19:05;94038.22;;;13.02;90.16
11329;BME280;5719;42.714;23.732;2023-04-20T09:21:32;94034.84;;;13.40;88.84
11329;BME280;5719;42.714;23.732;2023-04-20T09:24:03;94035.53;;;13.13;88.37
11329;BME280;5719;42.714;23.732;2023-04-20T09:26:31;94027.03;;;12.82;86.57
11329;BME280;5719;42.714;23.732;2023-04-20T09:29:00;94028.91;;;12.90;84.47
11329;BME280;5719;42.714;23.732;2023-04-20T09:31:27;94032.28;;;13.11;86.14
11329;BME280;5719;42.714;23.732;2023-04-20T09:33:58;94032.88;;;12.94;85.08
11329;BME280;5719;42.714;23.732;2023-04-20T09:36:34;94029.69;;;12.61;89.16
11329;BME280;5719;42.714;23.732;2023-04-20T09:39:06;94034.41;;;13.06;87.43
11329;BME280;5719;42.714;23.732;2023-04-20T09:41:34;94027.84;;;12.92;86.48
11329;BME280;5719;42.714;23.732;2023-04-20T09:44:01;94029.53;;;13.12;84.45
11329;BME280;5719;42.714;23.732;2023-04-20T09:46:32;94024.34;;;13.12;83.35
11329;BME280;5719;42.714;23.732;2023-04-20T09:49:00;94014.66;;;13.14;85.03
11329;BME280;5719;42.714;23.732;2023-04-20T09:51:30;94024.16;;;13.62;82.60
11329;BME280;5719;42.714;23.732;2023-04-20T09:53:58;94026.09;;;13.50;81.87
11329;BME280;5719;42.714;23.732;2023-04-20T09:56:27;94022.41;;;13.24;82.70
11329;BME280;5719;42.714;23.732;2023-04-20T09:58:55;94024.56;;;12.81;85.62
11329;BME280;5719;42.714;23.732;2023-04-20T10:01:23;94023.84;;;12.59;85.52
11329;BME280;5719;42.714;23.732;2023-04-20T10:03:52;94019.91;;;12.84;83.23
11329;BME280;5719;42.714;23.732;2023-04-20T10:06:20;94021.41;;;12.77;85.38
11329;BME280;5719;42.714;23.732;2023-04-20T10:08:47;94019.38;;;12.81;84.52
11329;BME280;5719;42.714;23.732;2023-04-20T10:11:27;94019.91;;;12.94;85.67
11329;BME280;5719;42.714;23.732;2023-04-20T10:13:54;94015.56;;;13.04;83.85
11329;BME280;5719;42.714;23.732;2023-04-20T10:16:21;94016.94;;;12.89;84.83
11329;BME280;5719;42.714;23.732;2023-04-20T10:18:56;94017.31;;;12.84;85.63
11329;BME280;5719;42.714;23.732;2023-04-20T10:21:23;94000.84;;;13.14;83.46
11329;BME280;5719;42.714;23.732;2023-04-20T10:23:51;94014.09;;;13.40;78.62
11329;BME280;5719;42.714;23.732;2023-04-20T10:26:18;94005.00;;;13.72;79.52
11329;BME280;5719;42.714;23.732;2023-04-20T10:28:47;94006.56;;;13.37;79.67
11329;BME280;5719;42.714;23.732;2023-04-20T10:31:14;94009.03;;;13.38;78.15
11329;BME280;5719;42.714;23.732;2023-04-20T10:33:51;94006.28;;;13.49;78.89
11329;BME280;5719;42.714;23.732;2023-04-20T10:36:26;94004.59;;;13.67;78.15
11329;BME280;5719;42.714;23.732;2023-04-20T10:38:54;94010.41;;;13.89;78.94
11329;BME280;5719;42.714;23.732;2023-04-20T10:41:21;94011.41;;;13.88;76.67
11329;BME280;5719;42.714;23.732;2023-04-20T10:43:50;94005.28;;;13.69;76.75
11329;BME280;5719;42.714;23.732;2023-04-20T10:46:18;94010.38;;;13.61;76.77
11329;BME280;5719;42.714;23.732;2023-04-20T10:48:53;94005.97;;;13.71;77.25
11329;BME280;5719;42.714;23.732;2023-04-20T10:51:20;94008.53;;;14.18;77.06
11329;BME280;5719;42.714;23.732;2023-04-20T10:54:02;94008.97;;;14.50;74.81
11329;BME280;5719;42.714;23.732;2023-04-20T10:56:37;94009.25;;;14.75;73.91
11329;BME280;5719;42.714;23.732;2023-04-20T10:59:07;94005.31;;;14.70;71.97
11329;BME280;5719;42.714;23.732;2023-04-20T11:01:34;94011.00;;;14.56;72.04
11329;BME280;5719;42.714;23.732;2023-04-20T11:04:01;94007.47;;;14.75;72.51
11329;BME280;5719;42.714;23.732;2023-04-20T11:06:29;94014.38;;;15.02;73.21
11329;BME280;5719;42.714;23.732;2023-04-20T11:08:56;94010.69;;;15.57;71.53
11329;BME280;5719;42.714;23.732;2023-04-20T11:11:24;94009.50;;;15.78;69.39
11329;BME280;5719;42.714;23.732;2023-04-20T11:14:04;94013.25;;;15.75;67.77
11329;BME280;5719;42.714;23.732;2023-04-20T11:16:33;94010.44;;;15.68;69.66
11329;BME280;5719;42.714;23.732;2023-04-20T11:19:01;94004.72;;;15.12;74.67
11329;BME280;5719;42.714;23.732;2023-04-20T11:21:37;94004.66;;;15.21;76.38
11329;BME280;5719;42.714;23.732;2023-04-20T11:24:16;94000.72;;;15.00;75.27
11329;BME280;5719;42.714;23.732;2023-04-20T11:26:44;94006.44;;;15.39;72.11
11329;BME280;5719;42.714;23.732;2023-04-20T11:29:26;94001.53;;;15.18;73.53
11329;BME280;5719;42.714;23.732;2023-04-20T11:31:54;94003.06;;;15.46;70.28
11329;BME280;5719;42.714;23.732;2023-04-20T11:34:21;94002.59;;;15.07;74.68
11329;BME280;5719;42.714;23.732;2023-04-20T11:36:49;94004.59;;;14.96;75.45
11329;BME280;5719;42.714;23.732;2023-04-20T11:39:22;93998.47;;;14.87;72.28
11329;BME280;5719;42.714;23.732;2023-04-20T11:41:49;94001.09;;;14.33;74.09
11329;BME280;5719;42.714;23.732;2023-04-20T11:44:16;94002.28;;;14.11;76.50
11329;BME280;5719;42.714;23.732;2023-04-20T11:46:45;94010.97;;;14.39;81.12
11329;BME280;5719;42.714;23.732;2023-04-20T11:49:17;94004.75;;;14.03;80.54
11329;BME280;5719;42.714;23.732;2023-04-20T11:51:44;94003.69;;;14.05;81.72
11329;BME280;5719;42.714;23.732;2023-04-20T11:54:11;94008.50;;;13.91;81.79
11329;BME280;5719;42.714;23.732;2023-04-20T11:56:38;94007.63;;;13.53;83.26
11329;BME280;5719;42.714;23.732;2023-04-20T11:59:06;94008.44;;;13.44;83.00
11329;BME280;5719;42.714;23.732;2023-04-20T12:01:33;94004.59;;;13.67;86.43
11329;BME280;5719;42.714;23.732;2023-04-20T12:04:01;94003.94;;;13.65;87.47
11329;BME280;5719;42.714;23.732;2023-04-20T12:06:29;94001.38;;;14.02;82.96
11329;BME280;5719;42.714;23.732;2023-04-20T12:08:57;94000.78;;;14.45;82.08
11329;BME280;5719;42.714;23.732;2023-04-20T12:11:26;94010.69;;;14.59;80.78
11329;BME280;5719;42.714;23.732;2023-04-20T12:13:53;94010.78;;;14.40;81.82
11329;BME280;5719;42.714;23.732;2023-04-20T12:16:20;94008.50;;;14.37;82.23
11329;BME280;5719;42.714;23.732;2023-04-20T12:18:47;94002.97;;;14.03;83.62
11329;BME280;5719;42.714;23.732;2023-04-20T12:21:16;93998.06;;;13.54;88.23
11329;BME280;5719;42.714;23.732;2023-04-20T12:23:45;94000.28;;;13.95;84.39
11329;BME280;5719;42.714;23.732;2023-04-20T12:26:14;93997.59;;;14.24;86.59
11329;BME280;5719;42.714;23.732;2023-04-20T12:28:41;93994.59;;;14.46;84.00
11329;BME280;5719;42.714;23.732;2023-04-20T12:31:09;93995.75;;;14.61;82.94
11329;BME280;5719;42.714;23.732;2023-04-20T12:33:36;93991.13;;;15.18;81.53
11329;BME280;5719;42.714;23.732;2023-04-20T12:36:03;93995.38;;;15.80;79.24
11329;BME280;5719;42.714;23.732;2023-04-20T12:38:33;93995.63;;;15.95;73.19
11329;BME280;5719;42.714;23.732;2023-04-20T12:41:02;93984.84;;;15.90;70.51
11329;BME280;5719;42.714;23.732;2023-04-20T12:43:29;93981.56;;;16.22;70.31
11329;BME280;5719;42.714;23.732;2023-04-20T12:45:57;93985.34;;;15.93;70.31
11329;BME280;5719;42.714;23.732;2023-04-20T12:48:24;93969.94;;;16.08;72.70
11329;BME280;5719;42.714;23.732;2023-04-20T12:50:51;93966.84;;;16.46;71.35
11329;BME280;5719;42.714;23.732;2023-04-20T12:53:17;93971.41;;;16.44;69.39
11329;BME280;5719;42.714;23.732;2023-04-20T12:55:45;93966.66;;;16.40;71.30
11329;BME280;5719;42.714;23.732;2023-04-20T12:58:13;93969.28;;;16.98;72.60
11329;BME280;5719;42.714;23.732;2023-04-20T13:00:41;93975.13;;;18.13;64.89